Time;durP1;ratioP1;P1;durP2;ratioP2;P2;SDS_P1;SDS_P2;PMS_P1;PMS_P2;Temp;Humidity;BMP_temperature;BMP_pressure;BME280_temperature;BME280_humidity;BME280_pressure;Samples;Min_cycle;Max_cycle;Signal;HPM_P1;HPM_P2
2022/09/26 00:01:41;;;;;;;11.75;8.57;;;;;;;19.89;100.00;95748.84;5092122;27;20087;-48
2022/09/26 00:04:14;;;;;;;10.70;7.60;;;;;;;19.45;100.00;95744.44;5103475;27;20098;-53
2022/09/26 00:06:43;;;;;;;11.13;7.68;;;;;;;18.70;100.00;95754.94;5099336;27;20096;-48
2022/09/26 00:09:14;;;;;;;10.18;7.82;;;;;;;19.33;100.00;95751.53;5102706;27;20071;-52
2022/09/26 00:11:44;;;;;;;11.55;7.60;;;;;;;18.91;100.00;95751.19;5098203;27;20080;-49
2022/09/26 00:14:14;;;;;;;10.95;7.28;;;;;;;18.51;100.00;95751.31;5107373;27;20087;-54
2022/09/26 00:16:42;;;;;;;8.50;6.93;;;;;;;19.38;100.00;95749.03;5102427;27;20080;-53
2022/09/26 00:19:11;;;;;;;10.57;6.75;;;;;;;18.91;100.00;95751.19;5097015;27;20078;-49
2022/09/26 00:21:39;;;;;;;10.85;7.60;;;;;;;18.89;100.00;95747.88;5098057;27;20106;-49
2022/09/26 00:24:08;;;;;;;11.70;7.57;;;;;;;18.95;100.00;95745.19;5103669;27;20568;-54
2022/09/26 00:26:38;;;;;;;10.40;6.53;;;;;;;18.70;100.00;95744.28;5105395;27;20087;-54
2022/09/26 00:29:09;;;;;;;10.00;6.93;;;;;;;18.85;100.00;95741.34;5101652;27;20086;-47
2022/09/26 00:31:39;;;;;;;11.15;6.80;;;;;;;18.99;100.00;95742.91;5103859;27;20537;-50
2022/09/26 00:34:09;;;;;;;8.90;7.00;;;;;;;18.82;100.00;95747.09;5096996;27;20071;-48
2022/09/26 00:36:38;;;;;;;9.27;6.68;;;;;;;19.05;100.00;95735.88;5107320;27;20521;-50
2022/09/26 00:39:07;;;;;;;9.75;6.85;;;;;;;18.88;100.00;95735.56;5102664;27;20560;-47
2022/09/26 00:41:36;;;;;;;10.73;7.25;;;;;;;18.73;100.00;95739.34;5106662;27;20090;-50
2022/09/26 00:44:35;;;;;;;10.15;7.28;;;;;;;18.72;100.00;95731.56;5102706;27;20082;-47
2022/09/26 00:47:04;;;;;;;8.32;6.07;;;;;;;18.12;100.00;95734.41;5091678;27;20083;-50
2022/09/26 00:49:34;;;;;;;9.73;6.93;;;;;;;18.56;100.00;95724.81;5096969;28;20064;-54
2022/09/26 00:52:05;;;;;;;10.55;7.25;;;;;;;19.16;100.00;95716.47;5093323;27;20086;-50
2022/09/26 00:54:34;;;;;;;10.65;7.53;;;;;;;19.03;100.00;95711.22;5102482;28;20458;-51
2022/09/26 00:57:09;;;;;;;11.88;7.50;;;;;;;19.48;100.00;95719.09;5102079;27;20081;-50
2022/09/26 00:59:45;;;;;;;11.25;8.45;;;;;;;19.27;100.00;95718.47;5107633;27;20070;-49
2022/09/26 01:02:14;;;;;;;12.23;7.68;;;;;;;19.64;100.00;95719.41;5093955;28;20079;-53
2022/09/26 01:04:44;;;;;;;9.77;7.32;;;;;;;20.05;100.00;95712.63;5104777;27;20090;-48
2022/09/26 01:07:19;;;;;;;12.50;8.15;;;;;;;19.42;100.00;95707.44;5096263;28;20087;-49
2022/09/26 01:09:47;;;;;;;11.02;8.10;;;;;;;18.55;100.00;95711.66;5097868;28;20368;-48
2022/09/26 01:12:16;;;;;;;11.20;8.00;;;;;;;19.44;100.00;95708.03;5098125;28;20477;-51
2022/09/26 01:14:47;;;;;;;9.48;7.55;;;;;;;19.94;100.00;95702.66;5104888;28;20099;-54
2022/09/26 01:17:15;;;;;;;;;;;;;;;20.13;100.00;95703.47;5105008;28;20083;-51
2022/09/26 01:19:49;;;;;;;10.88;8.00;;;;;;;19.55;100.00;95698.50;5103844;28;19994;-50
2022/09/26 01:23:04;;;;;;;11.80;8.02;;;;;;;20.25;100.00;95703.56;5108646;28;20087;-49
2022/09/26 01:25:55;;;;;;;12.00;8.32;;;;;;;19.68;100.00;95696.56;5033827;28;20208;-51
2022/09/26 01:28:35;;;;;;;10.10;7.85;;;;;;;19.55;100.00;95693.97;5037016;28;20085;-50
2022/09/26 01:31:14;;;;;;;10.88;8.25;;;;;;;19.76;100.00;95694.63;5087061;28;20079;-50
2022/09/26 01:33:50;;;;;;;10.63;8.73;;;;;;;19.56;100.00;95700.13;5093722;28;20090;-53
2022/09/26 01:36:50;;;;;;;12.30;8.93;;;;;;;19.12;100.00;95699.25;5098468;28;20079;-50
2022/09/26 01:39:40;;;;;;;13.50;8.85;;;;;;;18.78;100.00;95695.97;5098668;28;20095;-52
2022/09/26 01:42:16;;;;;;;12.13;9.35;;;;;;;19.24;100.00;95692.16;5085271;28;20080;-50
2022/09/26 01:44:50;;;;;;;14.70;9.30;;;;;;;18.96;100.00;95696.06;5105268;28;20071;-51
2022/09/26 01:47:23;;;;;;;11.52;8.98;;;;;;;19.31;100.00;95694.78;5094295;28;20087;-52
2022/09/26 01:49:55;;;;;;;11.63;8.57;;;;;;;19.35;100.00;95696.00;5104732;28;20082;-50
2022/09/26 01:52:29;;;;;;;12.38;8.85;;;;;;;18.92;100.00;95688.69;5098308;28;20117;-51
2022/09/26 01:55:02;;;;;;;12.25;9.55;;;;;;;19.71;100.00;95683.75;5103946;28;20075;-54
2022/09/26 01:57:32;;;;;;;12.85;9.35;;;;;;;18.67;100.00;95684.06;5100150;27;20071;-53
2022/09/26 02:00:04;;;;;;;13.45;9.50;;;;;;;18.82;100.00;95691.81;5104797;27;20075;-52
2022/09/26 02:02:38;;;;;;;13.70;9.70;;;;;;;18.79;100.00;95684.25;5104410;27;20454;-47
2022/09/26 02:05:09;;;;;;;12.85;9.35;;;;;;;18.10;100.00;95693.81;5099866;27;20079;-50
2022/09/26 02:07:40;;;;;;;18.95;9.73;;;;;;;18.64;100.00;95686.34;5110415;27;20079;-53
2022/09/26 02:10:12;;;;;;;12.07;9.70;;;;;;;18.58;100.00;95688.06;5097196;27;20072;-50
2022/09/26 02:12:41;;;;;;;13.00;9.95;;;;;;;18.51;100.00;95681.91;5111978;27;20062;-49
2022/09/26 02:15:14;;;;;;;16.15;10.90;;;;;;;18.93;100.00;95677.78;5106602;27;20071;-49
2022/09/26 02:17:47;;;;;;;13.15;10.35;;;;;;;18.30;100.00;95688.38;5104224;27;20078;-50
2022/09/26 02:20:19;;;;;;;14.43;10.13;;;;;;;18.09;100.00;95686.81;5100772;28;20103;-47
2022/09/26 02:22:47;;;;;;;15.15;9.73;;;;;;;18.16;100.00;95686.78;5099996;28;20517;-52
2022/09/26 02:25:17;;;;;;;14.32;10.50;;;;;;;18.64;100.00;95673.00;5105102;27;20079;-48
2022/09/26 02:27:45;;;;;;;14.90;10.57;;;;;;;18.87;100.00;95675.16;5105354;27;20079;-52
2022/09/26 02:30:13;;;;;;;16.00;10.35;;;;;;;18.30;100.00;95668.88;5104667;27;20446;-48
2022/09/26 02:32:43;;;;;;;13.60;10.27;;;;;;;18.21;100.00;95665.63;5097499;27;20106;-49
2022/09/26 02:37:58;;;;;;;14.35;10.07;;;;;;;18.09;100.00;95668.13;5096226;27;20118;-54
2022/09/26 02:40:34;;;;;;;14.45;10.68;;;;;;;18.24;100.00;95675.88;5108169;27;20079;-52
2022/09/26 02:43:11;;;;;;;14.43;10.48;;;;;;;17.91;100.00;95676.00;5098723;27;20078;-51
2022/09/26 02:45:43;;;;;;;15.30;11.02;;;;;;;18.32;100.00;95678.31;5101449;27;20079;-47
2022/09/26 02:48:22;;;;;;;13.82;10.15;;;;;;;18.29;100.00;95673.38;5097340;28;20483;-49
2022/09/26 02:51:01;;;;;;;17.75;11.05;;;;;;;18.56;100.00;95671.41;5101026;27;20471;-49
2022/09/26 02:53:47;;;;;;;15.02;10.55;;;;;;;18.19;100.00;95678.34;5104677;27;20076;-53
2022/09/26 02:56:22;;;;;;;17.30;11.52;;;;;;;18.89;100.00;95676.59;5097740;27;20068;-52
2022/09/26 02:59:10;;;;;;;15.40;11.32;;;;;;;18.89;100.00;95668.59;5107134;27;20075;-54
2022/09/26 03:01:42;;;;;;;15.77;11.00;;;;;;;19.19;100.00;95667.94;5104304;27;20035;-50
2022/09/26 03:04:15;;;;;;;16.23;11.48;;;;;;;18.72;100.00;95662.13;5090455;27;20590;-55
2022/09/26 03:06:46;;;;;;;14.82;11.30;;;;;;;18.56;100.00;95667.94;5093611;28;20063;-48
2022/09/26 03:09:15;;;;;;;15.77;11.38;;;;;;;18.34;100.00;95672.75;5096546;27;20079;-50
2022/09/26 03:11:44;;;;;;;14.70;10.07;;;;;;;17.96;100.00;95676.16;5108715;27;20525;-51
2022/09/26 03:14:13;;;;;;;19.73;11.55;;;;;;;18.26;100.00;95674.63;5099127;27;20114;-48
2022/09/26 03:16:44;;;;;;;14.43;10.48;;;;;;;17.80;100.00;95669.47;5108979;27;20071;-49
2022/09/26 03:19:18;;;;;;;17.40;10.65;;;;;;;18.57;100.00;95673.03;5099788;27;20075;-51
2022/09/26 03:21:47;;;;;;;15.43;10.98;;;;;;;18.95;100.00;95670.38;5106823;27;20079;-48
2022/09/26 03:24:16;;;;;;;16.73;11.15;;;;;;;18.32;100.00;95664.16;5100538;27;20084;-49
2022/09/26 03:26:45;;;;;;;16.58;11.07;;;;;;;18.14;100.00;95673.66;5103332;27;20063;-53
2022/09/26 03:29:13;;;;;;;15.90;10.65;;;;;;;17.94;100.00;95667.56;5102838;27;20082;-50
2022/09/26 03:31:43;;;;;;;15.80;11.32;;;;;;;18.22;100.00;95668.06;5106067;27;20505;-49
2022/09/26 03:34:12;;;;;;;15.70;11.85;;;;;;;17.91;100.00;95660.00;5108159;27;20094;-49
2022/09/26 03:36:42;;;;;;;16.27;10.75;;;;;;;17.79;100.00;95660.66;5096396;27;20075;-49
2022/09/26 03:39:10;;;;;;;16.65;11.23;;;;;;;17.74;100.00;95657.75;5102687;27;20564;-46
2022/09/26 03:41:39;;;;;;;17.67;11.95;;;;;;;18.22;100.00;95660.06;5101851;27;20071;-51
2022/09/26 03:44:07;;;;;;;15.95;11.85;;;;;;;17.98;100.00;95661.59;5103957;27;20518;-50
2022/09/26 03:46:35;;;;;;;18.05;12.00;;;;;;;18.57;100.00;95654.34;5102714;27;20071;-49
2022/09/26 03:49:07;;;;;;;16.98;12.02;;;;;;;17.96;100.00;95654.81;5105153;27;20075;-51
2022/09/26 03:51:35;;;;;;;17.67;12.32;;;;;;;18.35;100.00;95648.53;5104140;27;20075;-49
2022/09/26 03:54:05;;;;;;;14.82;10.60;;;;;;;17.48;100.00;95642.63;5104660;27;20079;-47
2022/09/26 03:56:33;;;;;;;17.23;12.53;;;;;;;18.41;100.00;95638.81;5101813;27;20592;-51
2022/09/26 03:59:02;;;;;;;17.35;12.32;;;;;;;17.83;100.00;95646.91;5103089;27;20889;-51
2022/09/26 04:01:30;;;;;;;16.55;12.85;;;;;;;18.72;100.00;95644.25;5106764;27;20375;-53
2022/09/26 04:03:59;;;;;;;16.38;12.60;;;;;;;18.62;100.00;95643.03;5098320;27;20076;-50
2022/09/26 04:06:27;;;;;;;18.42;13.13;;;;;;;18.35;100.00;95637.84;5106502;27;20071;-49
2022/09/26 04:08:56;;;;;;;18.23;13.05;;;;;;;18.74;100.00;95631.47;5098991;27;20072;-49
2022/09/26 04:11:26;;;;;;;20.20;13.32;;;;;;;19.30;100.00;95631.66;5101623;27;20075;-52
2022/09/26 04:13:54;;;;;;;17.17;12.57;;;;;;;18.81;100.00;95626.09;5098583;27;20116;-48
2022/09/26 04:16:23;;;;;;;19.77;12.93;;;;;;;18.20;100.00;95624.78;5102157;27;20892;-50
2022/09/26 04:18:55;;;;;;;18.02;13.20;;;;;;;18.30;100.00;95618.97;5098104;27;20522;-50
2022/09/26 04:21:24;;;;;;;19.02;13.10;;;;;;;18.14;100.00;95617.63;5103927;27;20090;-53
2022/09/26 04:23:54;;;;;;;18.67;13.98;;;;;;;18.05;100.00;95612.75;5103532;27;20086;-49
2022/09/26 04:26:23;;;;;;;20.58;13.38;;;;;;;18.34;100.00;95616.69;5097929;28;20143;-51
2022/09/26 04:28:55;;;;;;;19.33;14.10;;;;;;;18.41;100.00;95617.47;5099192;28;20090;-53
2022/09/26 04:31:26;;;;;;;20.70;13.93;;;;;;;18.67;100.00;95611.97;5094591;27;20470;-53
2022/09/26 04:33:55;;;;;;;18.83;13.43;;;;;;;18.51;100.00;95615.16;5097374;28;20071;-50
2022/09/26 04:36:23;;;;;;;18.10;14.23;;;;;;;18.37;100.00;95617.06;5098508;27;20633;-50
2022/09/26 04:38:52;;;;;;;20.58;14.73;;;;;;;18.82;100.00;95614.34;5100767;27;20090;-50
2022/09/26 04:41:21;;;;;;;27.35;15.07;;;;;;;17.95;100.00;95616.66;5099294;27;20067;-48
2022/09/26 04:43:49;;;;;;;21.88;15.10;;;;;;;18.85;100.00;95613.09;5095341;27;20090;-52
2022/09/26 04:46:21;;;;;;;19.45;13.85;;;;;;;18.72;100.00;95612.19;5097905;27;20541;-49
2022/09/26 04:48:58;;;;;;;22.90;14.65;;;;;;;18.52;100.00;95613.31;5095085;27;20076;-49
2022/09/26 04:51:28;;;;;;;21.50;14.23;;;;;;;18.77;100.00;95603.50;5099936;28;20076;-46
2022/09/26 04:53:56;;;;;;;22.15;14.60;;;;;;;18.62;100.00;95611.81;5105949;27;20074;-47
2022/09/26 04:56:26;;;;;;;21.83;14.93;;;;;;;18.52;100.00;95610.66;5101162;28;20465;-53
2022/09/26 04:58:56;;;;;;;21.33;16.02;;;;;;;19.05;100.00;95604.94;5104666;27;20544;-52
2022/09/26 05:01:26;;;;;;;21.95;15.80;;;;;;;18.79;100.00;95605.97;5107350;28;20075;-52
2022/09/26 05:04:24;;;;;;;22.70;14.77;;;;;;;18.62;100.00;95605.66;5101320;27;20465;-56
2022/09/26 05:06:56;;;;;;;21.20;15.55;;;;;;;18.54;100.00;95611.25;5081374;28;20456;-47
2022/09/26 05:09:25;;;;;;;22.02;15.40;;;;;;;19.25;100.00;95607.44;5098151;28;20087;-53
2022/09/26 05:11:53;;;;;;;22.73;15.23;;;;;;;18.66;100.00;95609.53;5110852;27;20082;-50
2022/09/26 05:14:22;;;;;;;22.60;16.05;;;;;;;19.22;100.00;95611.38;5099650;28;20074;-47
2022/09/26 05:16:52;;;;;;;22.88;16.20;;;;;;;18.97;100.00;95606.84;5118577;28;20090;-49
2022/09/26 05:19:20;;;;;;;22.35;15.27;;;;;;;18.93;100.00;95612.88;5104253;28;20537;-52
2022/09/26 05:21:50;;;;;;;19.00;14.77;;;;;;;18.84;100.00;95606.97;5102271;28;20072;-49
2022/09/26 05:27:05;;;;;;;22.02;14.52;;;;;;;18.76;100.00;95611.75;5125718;28;20471;-50
2022/09/26 05:29:34;;;;;;;19.65;14.82;;;;;;;18.66;100.00;95607.66;5112379;27;20086;-51
2022/09/26 05:32:03;;;;;;;19.63;14.30;;;;;;;18.75;100.00;95605.56;5129909;27;20532;-53
2022/09/26 05:34:32;;;;;;;18.63;12.88;;;;;;;18.10;100.00;95613.75;5129668;27;20048;-52
2022/09/26 05:37:24;;;;;;;20.35;14.32;;;;;;;18.56;100.00;95609.19;5111549;28;20047;-52
2022/09/26 05:42:39;;;;;;;20.60;14.32;;;;;;;19.60;100.00;95618.41;5113652;27;20105;-49
2022/09/26 05:45:08;;;;;;;20.63;14.52;;;;;;;19.35;100.00;95613.13;5112917;28;20090;-51
2022/09/26 05:47:38;;;;;;;21.17;14.77;;;;;;;19.74;100.00;95603.06;5120497;27;20091;-47
2022/09/26 05:50:08;;;;;;;19.00;13.98;;;;;;;18.81;100.00;95606.56;5114670;27;20067;-46
2022/09/26 05:52:37;;;;;;;19.20;14.23;;;;;;;19.06;100.00;95607.38;5118271;27;20079;-46
2022/09/26 05:55:07;;;;;;;19.58;13.98;;;;;;;19.29;100.00;95611.31;5116110;27;20087;-52
2022/09/26 05:57:35;;;;;;;19.20;13.15;;;;;;;18.65;100.00;95610.53;5115260;27;20087;-49
2022/09/26 06:00:04;;;;;;;24.95;13.15;;;;;;;19.09;100.00;95612.28;5121411;27;20501;-54
2022/09/26 06:02:33;;;;;;;19.50;13.07;;;;;;;18.56;100.00;95618.00;5125683;27;20086;-49
2022/09/26 06:05:04;;;;;;;18.35;13.27;;;;;;;19.28;100.00;95621.19;5123648;27;20497;-48
2022/09/26 06:07:32;;;;;;;18.80;12.63;;;;;;;18.92;100.00;95620.03;5106138;27;20576;-51
2022/09/26 06:10:04;;;;;;;20.70;13.02;;;;;;;19.20;100.00;95616.94;5111572;27;20090;-52
2022/09/26 06:12:33;;;;;;;18.55;12.63;;;;;;;19.30;100.00;95618.28;5109914;27;20106;-51
2022/09/26 06:15:02;;;;;;;18.77;13.25;;;;;;;19.38;100.00;95626.84;5086355;27;20071;-52
2022/09/26 06:17:31;;;;;;;18.05;12.93;;;;;;;19.53;100.00;95621.16;5101435;27;20091;-49
2022/09/26 06:19:59;;;;;;;17.58;10.90;;;;;;;19.11;100.00;95625.47;5103195;27;20075;-48
2022/09/26 06:22:29;;;;;;;17.98;11.50;;;;;;;19.54;100.00;95624.63;5101764;27;20079;-51
2022/09/26 06:24:57;;;;;;;16.67;12.00;;;;;;;19.47;100.00;95627.38;5106650;28;20701;-55
2022/09/26 06:27:26;;;;;;;17.42;10.65;;;;;;;19.12;100.00;95635.09;5122896;27;20508;-49
2022/09/26 06:29:54;;;;;;;18.25;11.68;;;;;;;19.23;100.00;95630.91;5128237;27;20102;-50
2022/09/26 06:32:23;;;;;;;16.98;11.00;;;;;;;19.29;100.00;95624.69;5112527;27;20083;-50
2022/09/26 06:34:51;;;;;;;15.25;10.73;;;;;;;18.60;100.00;95618.41;5120923;27;20489;-52
2022/09/26 06:37:19;;;;;;;18.00;11.48;;;;;;;18.38;100.00;95629.41;5118827;27;20090;-49
2022/09/26 06:39:49;;;;;;;15.15;9.70;;;;;;;19.11;100.00;95623.59;5124396;27;20089;-55
2022/09/26 06:42:23;;;;;;;16.77;10.35;;;;;;;18.77;100.00;95626.75;5118904;27;20096;-50
2022/09/26 06:44:52;;;;;;;15.80;9.88;;;;;;;19.67;100.00;95624.53;5130851;27;20078;-48
2022/09/26 06:47:21;;;;;;;17.98;10.00;;;;;;;20.02;100.00;95615.91;5116651;27;20079;-52
2022/09/26 06:49:49;;;;;;;15.75;7.18;;;;;;;20.10;100.00;95612.94;5118408;27;20521;-50
2022/09/26 06:52:17;;;;;;;9.00;6.30;;;;;;;20.30;100.00;95604.63;5121595;27;20086;-51
2022/09/26 06:54:45;;;;;;;8.73;5.72;;;;;;;20.30;100.00;95600.13;5117994;27;20071;-49
2022/09/26 06:57:15;;;;;;;8.60;6.10;;;;;;;20.51;100.00;95598.84;5124887;27;20094;-50
2022/09/26 06:59:44;;;;;;;12.77;6.63;;;;;;;20.62;100.00;95592.69;5110071;27;20521;-54
2022/09/26 07:02:15;;;;;;;11.45;6.65;;;;;;;20.71;100.00;95595.03;5125796;27;20537;-51
2022/09/26 07:04:43;;;;;;;9.35;5.80;;;;;;;20.96;100.00;95584.13;5120291;27;20626;-54
2022/09/26 07:07:11;;;;;;;7.88;5.50;;;;;;;21.15;100.00;95591.03;5119197;27;20075;-49
2022/09/26 07:09:40;;;;;;;9.77;6.05;;;;;;;20.55;100.00;95601.88;5119584;27;20071;-50
2022/09/26 07:12:08;;;;;;;8.13;5.82;;;;;;;20.16;100.00;95601.31;5118659;27;20083;-48
2022/09/26 07:14:44;;;;;;;9.77;6.00;;;;;;;21.07;100.00;95600.22;5111393;28;20082;-50
2022/09/26 07:17:20;;;;;;;9.65;6.43;;;;;;;21.59;100.00;95604.13;5118410;27;20083;-49
2022/09/26 07:19:52;;;;;;;9.23;5.72;;;;;;;21.37;100.00;95607.41;5117794;27;20526;-55
2022/09/26 07:22:20;;;;;;;10.10;6.30;;;;;;;20.91;100.00;95611.63;5129000;27;20090;-54
2022/09/26 07:24:49;;;;;;;8.80;5.75;;;;;;;21.94;100.00;95596.81;5130331;27;20082;-53
2022/09/26 07:27:17;;;;;;;9.07;6.68;;;;;;;21.89;100.00;95602.09;5131808;27;20102;-50
2022/09/26 07:29:47;;;;;;;10.63;7.25;;;;;;;22.30;100.00;95596.72;5125772;27;20123;-53
2022/09/26 07:32:16;;;;;;;10.73;6.63;;;;;;;21.91;100.00;95599.97;5130428;27;20486;-50
2022/09/26 07:34:44;;;;;;;10.43;7.28;;;;;;;22.19;100.00;95596.53;5111734;27;20075;-49
2022/09/26 07:37:13;;;;;;;10.10;7.30;;;;;;;22.70;100.00;95597.47;5130231;27;20085;-50
2022/09/26 07:39:41;;;;;;;8.30;6.80;;;;;;;22.17;100.00;95598.66;5110730;27;20087;-50
2022/09/26 07:42:09;;;;;;;9.65;7.18;;;;;;;22.48;100.00;95594.69;5099265;28;20549;-53
2022/09/26 07:44:39;;;;;;;9.05;7.22;;;;;;;22.13;100.00;95583.25;5107380;27;20079;-50
2022/09/26 07:50:18;;;;;;;10.85;7.63;;;;;;;21.61;100.00;95597.47;5110517;28;20060;-53
2022/09/26 07:52:48;;;;;;;9.68;7.50;;;;;;;22.57;96.35;95586.22;5123338;27;20487;-46
2022/09/26 07:55:18;;;;;;;11.18;6.63;;;;;;;22.17;100.00;95589.78;5128954;27;20047;-49
2022/09/26 07:57:48;;;;;;;9.67;7.53;;;;;;;21.94;100.00;95588.75;5110670;27;20083;-51
2022/09/26 08:00:18;;;;;;;;;;;;;;;22.66;100.00;95590.97;5096156;28;20063;-50
2022/09/26 08:02:49;;;;;;;11.35;7.78;;;;;;;21.55;100.00;95599.22;5110691;28;19962;-49
2022/09/26 08:05:19;;;;;;;11.77;7.90;;;;;;;22.04;100.00;95605.06;5123452;27;20549;-47
2022/09/26 08:07:48;;;;;;;10.27;7.93;;;;;;;21.09;100.00;95598.16;5130406;27;20094;-54
2022/09/26 08:10:20;;;;;;;11.95;7.90;;;;;;;21.01;100.00;95600.34;5125401;27;20769;-48
2022/09/26 08:12:49;;;;;;;9.70;7.38;;;;;;;21.13;100.00;95603.84;5127707;27;20090;-50
2022/09/26 08:15:18;;;;;;;10.73;7.57;;;;;;;20.94;100.00;95596.94;5119943;27;20644;-50
2022/09/26 08:17:48;;;;;;;10.13;7.60;;;;;;;20.80;100.00;95596.34;5109930;27;20087;-53
2022/09/26 08:20:17;;;;;;;9.32;6.50;;;;;;;21.71;100.00;95600.38;5100257;28;20094;-52
2022/09/26 08:22:45;;;;;;;10.18;6.95;;;;;;;21.79;100.00;95602.69;5109506;28;20079;-52
2022/09/26 08:25:13;;;;;;;9.05;6.30;;;;;;;21.92;100.00;95590.03;5109308;28;20105;-52
2022/09/26 08:27:43;;;;;;;8.70;6.50;;;;;;;21.88;100.00;95595.06;5110453;27;20997;-49
2022/09/26 08:30:12;;;;;;;9.57;5.28;;;;;;;21.91;95.48;95589.22;5108546;28;20074;-47
2022/09/26 08:32:41;;;;;;;7.30;4.95;;;;;;;22.47;100.00;95585.00;5119956;27;20093;-52
2022/09/26 08:35:11;;;;;;;8.50;6.15;;;;;;;22.02;90.72;95584.88;5124278;27;20071;-50
2022/09/26 08:37:39;;;;;;;7.85;5.25;;;;;;;22.17;96.06;95587.91;5123084;27;20085;-50
2022/09/26 08:40:08;;;;;;;5.72;3.97;;;;;;;21.19;93.29;95586.00;5115706;27;20067;-48
2022/09/26 08:42:44;;;;;;;7.80;5.07;;;;;;;20.64;100.00;95592.44;5114458;27;20401;-52
2022/09/26 08:48:31;;;;;;;6.30;4.40;;;;;;;21.78;94.48;95586.81;5117171;27;20085;-53
2022/09/26 08:51:10;;;;;;;6.15;3.40;;;;;;;21.24;88.94;95584.28;5088507;27;20032;-55
2022/09/26 08:53:43;;;;;;;5.50;3.45;;;;;;;20.83;98.74;95585.16;5095855;27;20509;-49
2022/09/26 08:56:19;;;;;;;7.13;4.20;;;;;;;20.74;100.00;95578.50;5121532;27;20107;-45
2022/09/26 08:58:51;;;;;;;5.25;3.55;;;;;;;21.27;92.96;95578.44;5112565;27;20512;-52
2022/09/26 09:01:25;;;;;;;7.38;3.92;;;;;;;20.50;100.00;95565.03;5128120;27;20468;-45
2022/09/26 09:03:58;;;;;;;6.65;4.38;;;;;;;20.04;100.00;95569.16;5098002;28;20070;-49
2022/09/26 09:06:28;;;;;;;7.22;4.32;;;;;;;20.24;100.00;95568.09;5109295;27;20075;-55
2022/09/26 09:08:57;;;;;;;5.60;3.70;;;;;;;19.95;100.00;95567.00;5116438;27;20075;-53
2022/09/26 09:11:42;;;;;;;6.90;4.03;;;;;;;22.04;92.41;95551.38;5116152;27;20071;-46
2022/09/26 09:14:17;;;;;;;5.07;3.67;;;;;;;20.90;100.00;95559.06;5111596;27;20514;-47
2022/09/26 09:16:54;;;;;;;5.88;4.13;;;;;;;21.87;93.13;95550.50;5116504;28;20124;-47
2022/09/26 09:19:37;;;;;;;5.30;3.90;;;;;;;21.54;83.70;95537.72;5122386;28;20098;-50
2022/09/26 09:22:27;;;;;;;5.28;4.03;;;;;;;22.45;78.12;95529.88;5121497;28;20085;-53
2022/09/26 09:24:59;;;;;;;5.10;3.35;;;;;;;22.38;81.39;95526.53;5125917;28;20086;-55
2022/09/26 09:27:42;;;;;;;6.25;3.45;;;;;;;21.56;83.76;95528.41;5100134;28;20091;-51
2022/09/26 09:30:36;;;;;;;4.15;3.30;;;;;;;22.11;83.56;95534.31;5110644;28;20541;-51
2022/09/26 09:33:08;;;;;;;4.07;3.22;;;;;;;21.12;86.88;95539.72;5119301;28;20087;-47
2022/09/26 09:35:40;;;;;;;6.65;4.32;;;;;;;22.73;74.45;95531.69;5113536;28;20062;-54
2022/09/26 09:38:15;;;;;;;5.47;3.80;;;;;;;21.25;84.47;95536.81;5123529;28;20091;-50
2022/09/26 09:40:48;;;;;;;5.32;3.75;;;;;;;21.27;95.75;95527.50;5104554;28;20087;-49
2022/09/26 09:43:25;;;;;;;4.80;3.78;;;;;;;22.37;78.47;95531.09;5114054;28;20090;-53
2022/09/26 09:45:55;;;;;;;7.35;4.10;;;;;;;22.01;81.41;95529.56;5102500;28;20083;-50
2022/09/26 09:48:25;;;;;;;;;;;;;;;21.07;87.39;95535.88;5116876;28;20090;-46
2022/09/26 09:51:04;;;;;;;4.68;3.33;;;;;;;21.99;80.22;95529.81;5114497;28;19966;-49
2022/09/26 09:53:51;;;;;;;5.90;3.42;;;;;;;22.11;85.25;95523.56;5126586;28;20091;-50
2022/09/26 09:56:26;;;;;;;5.10;3.30;;;;;;;23.17;69.62;95523.81;5106583;28;20079;-49
2022/09/26 09:59:10;;;;;;;4.45;3.20;;;;;;;23.33;68.42;95524.81;5117753;28;20555;-52
2022/09/26 10:01:41;;;;;;;4.90;3.30;;;;;;;23.75;63.87;95525.16;5119140;28;20078;-51
2022/09/26 10:04:19;;;;;;;3.90;3.15;;;;;;;23.80;61.09;95513.63;5122754;28;20168;-54
2022/09/26 10:06:51;;;;;;;4.20;3.35;;;;;;;23.28;58.37;95517.50;5114137;28;20428;-54
2022/09/26 10:09:24;;;;;;;4.82;3.33;;;;;;;22.90;63.44;95515.56;5116299;28;20066;-52
2022/09/26 10:12:13;;;;;;;4.35;2.80;;;;;;;23.69;59.39;95518.88;5119224;28;20094;-57
2022/09/26 10:14:46;;;;;;;2.55;1.95;;;;;;;22.91;59.14;95509.13;5111061;28;20083;-48
2022/09/26 10:17:24;;;;;;;4.65;1.90;;;;;;;22.22;64.83;95504.75;5113500;27;20558;-52
2022/09/26 10:19:52;;;;;;;2.53;1.75;;;;;;;22.42;63.71;95506.97;5111809;27;20082;-50
2022/09/26 10:22:28;;;;;;;3.92;2.30;;;;;;;22.56;66.20;95504.81;5112659;28;20675;-47
2022/09/26 10:25:07;;;;;;;3.65;2.40;;;;;;;22.16;72.30;95503.06;5126130;27;20560;-48
2022/09/26 10:27:37;;;;;;;2.40;2.08;;;;;;;23.45;61.20;95501.31;5124717;27;20089;-49
2022/09/26 10:30:24;;;;;;;2.67;2.05;;;;;;;22.48;66.92;95505.22;5125614;27;20319;-54
2022/09/26 10:32:55;;;;;;;3.08;1.60;;;;;;;22.50;61.75;95501.22;5123068;27;20466;-50
2022/09/26 10:35:27;;;;;;;2.63;1.83;;;;;;;21.49;75.71;95500.91;5126125;27;20075;-47
2022/09/26 10:38:00;;;;;;;2.85;1.90;;;;;;;22.60;68.08;95500.56;5128348;27;20086;-50
2022/09/26 10:40:44;;;;;;;3.50;1.90;;;;;;;22.13;66.89;95495.44;5118930;27;20106;-48
2022/09/26 10:43:20;;;;;;;3.25;2.00;;;;;;;22.09;69.94;95493.47;5120865;27;20433;-48
2022/09/26 10:45:53;;;;;;;3.00;2.08;;;;;;;22.84;63.86;95487.78;5118053;27;20458;-52
2022/09/26 10:48:34;;;;;;;3.33;2.15;;;;;;;22.32;64.24;95487.19;5124990;27;20094;-48
2022/09/26 10:51:03;;;;;;;6.28;2.00;;;;;;;23.03;63.65;95499.13;5121926;27;20091;-51
2022/09/26 10:53:35;;;;;;;3.50;2.10;;;;;;;23.38;56.94;95493.44;5111899;27;20079;-51
2022/09/26 10:56:10;;;;;;;1.92;1.67;;;;;;;23.21;56.68;95492.66;5110548;27;20571;-48
2022/09/26 10:58:41;;;;;;;3.40;1.83;;;;;;;22.78;58.74;95499.53;5121412;27;20087;-50
2022/09/26 11:01:19;;;;;;;3.38;1.95;;;;;;;22.01;73.06;95497.34;5122618;27;20043;-51
2022/09/26 11:03:49;;;;;;;6.05;2.30;;;;;;;21.48;100.00;95503.81;5118297;27;20086;-47
2022/09/26 11:06:25;;;;;;;4.07;2.85;;;;;;;21.54;100.00;95503.69;5107003;27;20180;-52
2022/09/26 11:09:01;;;;;;;5.57;2.97;;;;;;;21.60;100.00;95506.47;5113620;27;20063;-49
2022/09/26 11:11:36;;;;;;;3.97;2.83;;;;;;;22.04;100.00;95508.41;5116924;27;20083;-54
2022/09/26 11:14:07;;;;;;;4.28;3.10;;;;;;;20.94;100.00;95512.00;5121745;27;20094;-52
2022/09/26 11:16:40;;;;;;;;;;;;;;;21.73;100.00;95507.00;5117568;27;20078;-47
2022/09/26 11:19:13;;;;;;;4.00;3.03;;;;;;;22.09;100.00;95491.59;5128226;27;19954;-50
2022/09/26 11:21:45;;;;;;;3.67;3.22;;;;;;;22.39;100.00;95479.78;5108813;27;20075;-48
2022/09/26 11:24:18;;;;;;;4.38;2.72;;;;;;;22.58;100.00;95467.75;5129476;27;20083;-50
2022/09/26 11:26:59;;;;;;;4.32;2.88;;;;;;;21.74;100.00;95471.06;5123644;27;20564;-52
2022/09/26 11:29:40;;;;;;;4.90;3.08;;;;;;;22.88;100.00;95459.38;5117777;27;20087;-50
2022/09/26 11:32:13;;;;;;;6.07;3.00;;;;;;;23.80;100.00;95454.38;5124451;27;20091;-54
2022/09/26 11:34:42;;;;;;;4.47;2.45;;;;;;;23.44;100.00;95457.47;5117675;27;20474;-51
2022/09/26 11:37:29;;;;;;;4.93;2.90;;;;;;;22.29;100.00;95456.25;5114753;27;20537;-49
2022/09/26 11:40:22;;;;;;;3.75;2.78;;;;;;;23.56;100.00;95443.06;5113118;27;20478;-50
2022/09/26 11:43:05;;;;;;;2.88;2.10;;;;;;;22.79;100.00;95447.38;5114557;27;20079;-51
2022/09/26 11:45:40;;;;;;;3.20;2.30;;;;;;;23.33;100.00;95450.31;5095134;28;20048;-50
2022/09/26 11:48:20;;;;;;;;;;;;;;;24.07;100.00;95440.94;5114384;27;20571;-52
2022/09/26 11:50:55;;;;;;;2.78;1.60;;;;;;;23.73;76.19;95435.75;5113718;27;20351;-48
2022/09/26 11:53:43;;;;;;;2.70;1.85;;;;;;;23.60;95.57;95434.22;5130705;27;20089;-48
2022/09/26 11:56:28;;;;;;;1.65;1.38;;;;;;;23.19;95.00;95432.91;5123115;27;20087;-49
2022/09/26 11:59:06;;;;;;;1.88;1.23;;;;;;;22.78;83.86;95434.19;5117380;27;20525;-50